createdAt,value
2018-12-11T00:00:03.449Z,55.09
2018-12-11T00:02:33.184Z,54.62
2018-12-11T00:05:02.829Z,55.09
2018-12-11T00:07:32.540Z,55.60
2018-12-11T00:10:02.180Z,55.11
2018-12-11T00:12:31.845Z,54.58
2018-12-11T00:15:01.504Z,54.69
2018-12-11T00:17:31.186Z,55.12
2018-12-11T00:20:00.871Z,54.74
2018-12-11T00:22:30.537Z,54.81
2018-12-11T00:25:00.239Z,54.46
2018-12-11T00:27:29.946Z,54.56
2018-12-11T00:29:59.733Z,54.70
2018-12-11T00:32:29.351Z,54.38
2018-12-11T00:34:59.021Z,54.18
2018-12-11T00:37:28.640Z,54.08
2018-12-11T00:39:58.326Z,54.31
2018-12-11T00:42:28.015Z,54.08
2018-12-11T00:44:57.661Z,54.22
2018-12-11T00:47:27.327Z,53.92
2018-12-11T00:49:56.968Z,54.34
2018-12-11T00:52:26.664Z,54.04
2018-12-11T00:54:56.281Z,53.67
2018-12-11T00:57:26.018Z,53.87
2018-12-11T00:59:55.664Z,53.49
2018-12-11T01:02:25.348Z,53.53
2018-12-11T01:04:55.033Z,53.41
2018-12-11T01:07:24.700Z,52.88
2018-12-11T01:09:54.317Z,53.16
2018-12-11T01:12:24.001Z,53.01
2018-12-11T01:14:53.677Z,52.92
2018-12-11T01:17:23.388Z,52.58
2018-12-11T01:19:53.092Z,52.76
2018-12-11T01:22:22.788Z,52.38
2018-12-11T01:24:52.617Z,52.90
2018-12-11T01:27:22.310Z,52.60
2018-12-11T01:29:51.943Z,52.74
2018-12-11T01:32:21.793Z,52.40
2018-12-11T01:34:51.469Z,52.28
2018-12-11T01:37:21.159Z,51.99
2018-12-11T01:39:50.824Z,52.00
2018-12-11T01:42:20.532Z,51.92
2018-12-11T01:44:50.209Z,51.92
2018-12-11T01:47:19.841Z,51.67
2018-12-11T01:49:49.519Z,51.55
2018-12-11T01:52:19.148Z,51.42
2018-12-11T01:54:48.860Z,51.59
2018-12-11T01:57:18.493Z,51.36
2018-12-11T01:59:48.136Z,51.22
2018-12-11T02:02:17.825Z,51.61
2018-12-11T02:04:47.485Z,51.22
2018-12-11T02:07:17.129Z,51.42
2018-12-11T02:09:46.804Z,51.71
2018-12-11T02:12:16.505Z,51.01
2018-12-11T02:14:46.180Z,51.03
2018-12-11T02:17:16.116Z,51.49
2018-12-11T02:19:45.806Z,51.03
2018-12-11T02:22:15.488Z,51.09
2018-12-11T02:24:45.141Z,51.08
2018-12-11T02:27:15.496Z,50.67
2018-12-11T02:29:45.152Z,50.84
2018-12-11T02:32:15.319Z,51.09
2018-12-11T02:34:44.975Z,50.24
2018-12-11T02:37:14.670Z,50.00
2018-12-11T02:39:44.340Z,50.14
2018-12-11T02:42:14.031Z,50.09
2018-12-11T02:44:43.707Z,50.07
2018-12-11T02:47:13.392Z,50.00
2018-12-11T02:49:43.060Z,50.12
2018-12-11T02:52:12.920Z,50.61
2018-12-11T02:54:42.619Z,50.22
2018-12-11T02:57:12.247Z,50.35
2018-12-11T02:59:41.978Z,50.18
2018-12-11T03:02:11.900Z,50.31
2018-12-11T03:04:41.577Z,50.32
2018-12-11T03:07:11.295Z,49.98
2018-12-11T03:09:40.964Z,49.95
2018-12-11T03:12:10.747Z,49.91
2018-12-11T03:14:40.452Z,49.97
2018-12-11T03:17:10.119Z,50.39
2018-12-11T03:19:39.781Z,50.07
2018-12-11T03:22:09.477Z,49.85
2018-12-11T03:24:39.108Z,49.78
2018-12-11T03:27:08.769Z,49.79
2018-12-11T03:29:38.431Z,49.97
2018-12-11T03:32:08.088Z,49.51
2018-12-11T03:34:37.803Z,49.79
2018-12-11T03:37:07.470Z,49.73
2018-12-11T03:39:37.140Z,49.57
2018-12-11T03:42:06.821Z,49.57
2018-12-11T03:44:36.499Z,49.82
2018-12-11T03:47:06.277Z,49.46
2018-12-11T03:49:35.933Z,49.15
2018-12-11T03:52:05.642Z,48.83
2018-12-11T03:54:35.307Z,49.05
2018-12-11T03:57:05.018Z,49.04
2018-12-11T03:59:34.684Z,48.73
2018-12-11T04:02:04.775Z,48.99
2018-12-11T04:04:34.460Z,48.92
2018-12-11T04:07:04.232Z,48.90
2018-12-11T04:09:33.865Z,48.92
2018-12-11T04:12:04.617Z,48.45
2018-12-11T04:14:34.696Z,48.29
2018-12-11T04:17:04.353Z,48.74
2018-12-11T04:19:34.054Z,48.28
2018-12-11T04:22:03.757Z,48.07
2018-12-11T04:24:33.438Z,47.98
2018-12-11T04:27:03.082Z,48.18
2018-12-11T04:29:32.769Z,47.49
2018-12-11T04:32:02.537Z,47.74
2018-12-11T04:34:32.147Z,47.78
2018-12-11T04:37:01.847Z,47.76
2018-12-11T04:39:34.101Z,47.51
2018-12-11T04:42:03.217Z,48.06
2018-12-11T04:44:32.838Z,47.83
2018-12-11T04:47:02.522Z,47.56
2018-12-11T04:49:32.265Z,47.78
2018-12-11T04:52:01.891Z,48.21
2018-12-11T04:54:31.582Z,49.09
2018-12-11T04:57:01.261Z,49.39
2018-12-11T04:59:30.940Z,49.55
2018-12-11T05:02:00.620Z,49.70
2018-12-11T05:04:30.365Z,49.64
2018-12-11T05:07:00.000Z,50.18
2018-12-11T05:09:29.697Z,49.77
2018-12-11T05:11:59.375Z,50.42
2018-12-11T05:14:29.056Z,50.44
2018-12-11T05:16:58.733Z,50.29
2018-12-11T05:19:28.420Z,50.37
2018-12-11T05:21:58.061Z,50.81
2018-12-11T05:24:27.763Z,50.55
2018-12-11T05:26:57.419Z,50.49
2018-12-11T05:29:27.582Z,50.32
2018-12-11T05:31:57.232Z,50.55
2018-12-11T05:34:26.938Z,50.24
2018-12-11T05:36:56.840Z,50.28
2018-12-11T05:39:26.528Z,49.96
2018-12-11T05:41:56.188Z,50.33
2018-12-11T05:44:25.817Z,50.25
2018-12-11T05:46:55.479Z,49.81
2018-12-11T05:49:25.128Z,49.88
2018-12-11T05:51:54.810Z,49.16
2018-12-11T05:54:24.482Z,49.28
2018-12-11T05:56:54.194Z,48.88
2018-12-11T05:59:24.291Z,48.59
2018-12-11T06:01:53.965Z,48.77
2018-12-11T06:04:23.625Z,48.72
2018-12-11T06:06:53.309Z,48.55
2018-12-11T06:09:22.925Z,48.62
2018-12-11T06:11:52.686Z,49.04
2018-12-11T06:14:22.380Z,48.93
2018-12-11T06:16:52.280Z,48.68
2018-12-11T06:19:22.072Z,47.90
2018-12-11T06:21:51.752Z,48.00
2018-12-11T06:24:21.420Z,48.36
2018-12-11T06:26:51.225Z,48.27
2018-12-11T06:29:20.924Z,47.95
2018-12-11T06:31:50.627Z,47.39
2018-12-11T06:34:20.242Z,47.42
2018-12-11T06:36:50.053Z,47.00
2018-12-11T06:39:19.780Z,46.97
2018-12-11T06:41:49.445Z,46.63
2018-12-11T06:46:59.340Z,46.84
2018-12-11T06:49:29.026Z,46.27
2018-12-11T06:51:58.714Z,46.07
2018-12-11T06:54:28.578Z,46.27
2018-12-11T06:56:58.200Z,46.25
2018-12-11T06:59:27.956Z,45.81
2018-12-11T07:01:57.641Z,45.77
2018-12-11T07:04:27.321Z,45.78
2018-12-11T07:06:56.985Z,45.96
2018-12-11T07:09:26.708Z,45.88
2018-12-11T07:11:56.421Z,45.44
2018-12-11T07:14:26.154Z,44.91
2018-12-11T07:16:55.841Z,45.52
2018-12-11T07:19:25.562Z,45.30
2018-12-11T07:21:55.260Z,45.22
2018-12-11T07:24:25.165Z,45.50
2018-12-11T07:26:54.865Z,45.21
2018-12-11T07:29:24.642Z,45.33
2018-12-11T07:31:54.341Z,45.12
2018-12-11T07:34:24.105Z,45.31
2018-12-11T07:36:53.801Z,44.97
2018-12-11T07:39:23.546Z,44.99
2018-12-11T07:41:53.239Z,44.53
2018-12-11T07:44:22.996Z,44.00
2018-12-11T07:46:52.757Z,44.16
2018-12-11T07:49:22.470Z,44.59
2018-12-11T07:51:52.224Z,44.67
2018-12-11T07:54:21.971Z,43.90
2018-12-11T07:56:51.657Z,44.66
2018-12-11T07:59:21.359Z,44.45
2018-12-11T08:01:51.000Z,44.05
2018-12-11T08:04:20.705Z,44.28
2018-12-11T08:06:50.373Z,44.38
2018-12-11T08:09:20.033Z,44.34
2018-12-11T08:11:49.840Z,45.15
2018-12-11T08:14:19.574Z,45.59
2018-12-11T08:16:49.251Z,45.26
2018-12-11T08:19:19.073Z,44.95
2018-12-11T08:21:48.804Z,44.91
2018-12-11T08:24:18.481Z,45.09
2018-12-11T08:26:48.213Z,45.30
2018-12-11T08:29:17.918Z,44.60
2018-12-11T08:31:47.650Z,44.93
2018-12-11T08:34:17.330Z,44.94
2018-12-11T08:36:47.045Z,44.34
2018-12-11T08:39:16.805Z,44.62
2018-12-11T08:41:46.509Z,43.93
2018-12-11T08:44:16.217Z,44.27
2018-12-11T08:46:45.886Z,43.40
2018-12-11T08:49:15.578Z,43.29
2018-12-11T08:51:45.341Z,43.60
2018-12-11T08:54:15.020Z,43.19
2018-12-11T08:56:44.676Z,42.75
2018-12-11T08:59:14.371Z,42.40
2018-12-11T09:01:44.097Z,42.67
2018-12-11T09:04:13.825Z,43.29
2018-12-11T09:06:43.541Z,42.71
2018-12-11T09:09:13.187Z,43.26
2018-12-11T09:11:42.937Z,42.19
2018-12-11T09:14:12.617Z,42.34
2018-12-11T09:16:42.304Z,42.03
2018-12-11T09:19:12.193Z,42.20
2018-12-11T09:21:41.921Z,42.36
2018-12-11T09:24:11.654Z,42.07
2018-12-11T09:26:41.349Z,42.29
2018-12-11T09:29:11.037Z,41.88
2018-12-11T09:31:40.730Z,42.68
2018-12-11T09:34:10.464Z,42.60
2018-12-11T09:36:40.162Z,42.35
2018-12-11T09:39:09.982Z,42.12
2018-12-11T09:41:39.693Z,42.11
2018-12-11T09:44:10.026Z,41.63
2018-12-11T09:46:39.725Z,41.98
2018-12-11T09:49:21.050Z,41.56
2018-12-11T09:51:50.835Z,42.15
2018-12-11T09:54:20.554Z,42.11
2018-12-11T09:56:50.258Z,41.27
2018-12-11T09:59:23.399Z,41.60
2018-12-11T10:01:51.793Z,40.54
2018-12-11T10:04:21.494Z,40.28
2018-12-11T10:06:51.161Z,40.47
2018-12-11T10:09:20.862Z,40.64
2018-12-11T10:11:50.526Z,40.67
2018-12-11T10:14:20.251Z,40.59
2018-12-11T10:16:49.944Z,39.82
2018-12-11T10:19:19.682Z,39.60
2018-12-11T10:21:49.373Z,39.73
2018-12-11T10:24:21.228Z,40.09
2018-12-11T10:26:51.061Z,39.64
2018-12-11T10:29:20.800Z,39.53
2018-12-11T10:31:50.512Z,38.96
2018-12-11T10:34:20.258Z,38.68
2018-12-11T10:36:49.916Z,38.60
2018-12-11T10:39:19.707Z,38.00
2018-12-11T10:41:49.457Z,38.84
2018-12-11T10:44:19.096Z,38.62
2018-12-11T10:46:48.765Z,38.90
2018-12-11T10:49:18.410Z,38.68
2018-12-11T10:51:48.093Z,38.50
2018-12-11T10:54:17.740Z,38.00
2018-12-11T10:56:47.453Z,37.59
2018-12-11T10:59:17.169Z,38.31
2018-12-11T11:01:49.881Z,37.41
2018-12-11T11:04:19.931Z,37.38
2018-12-11T11:06:49.648Z,37.19
2018-12-11T11:09:19.509Z,37.50
2018-12-11T11:11:49.269Z,37.22
2018-12-11T11:14:19.018Z,37.64
2018-12-11T11:16:48.697Z,37.82
2018-12-11T11:19:18.400Z,37.06
2018-12-11T11:21:48.108Z,37.22
2018-12-11T11:24:17.859Z,37.84
2018-12-11T11:26:47.527Z,36.76
2018-12-11T11:29:17.812Z,36.47
2018-12-11T11:31:47.621Z,37.06
2018-12-11T11:34:17.310Z,37.46
2018-12-11T11:36:47.043Z,37.87
2018-12-11T11:39:16.714Z,38.21
2018-12-11T11:41:46.491Z,37.57
2018-12-11T11:44:16.220Z,36.64
2018-12-11T11:46:46.020Z,37.32
2018-12-11T11:49:15.701Z,36.83
2018-12-11T11:51:45.390Z,37.00
2018-12-11T11:54:15.089Z,36.24
2018-12-11T11:56:44.759Z,35.68
2018-12-11T11:59:14.553Z,36.26
2018-12-11T12:01:44.321Z,36.43
2018-12-11T12:04:14.035Z,37.33
2018-12-11T12:06:43.747Z,36.89
2018-12-11T12:12:43.220Z,35.54
2018-12-11T12:15:12.888Z,35.80
2018-12-11T12:17:42.571Z,36.18
2018-12-11T12:20:12.420Z,36.51
2018-12-11T12:22:42.224Z,36.68
2018-12-11T12:25:12.005Z,36.48
2018-12-11T12:27:41.793Z,36.46
2018-12-11T12:30:11.676Z,35.78
2018-12-11T12:32:41.382Z,34.49
2018-12-11T12:35:11.057Z,33.71
2018-12-11T12:37:40.753Z,35.41
2018-12-11T12:40:10.530Z,35.91
2018-12-11T12:42:40.252Z,34.65
2018-12-11T12:45:10.012Z,35.23
2018-12-11T12:47:39.835Z,35.37
2018-12-11T12:50:09.598Z,35.25
2018-12-11T12:52:40.702Z,35.64
2018-12-11T12:55:10.630Z,35.68
2018-12-11T12:57:40.350Z,36.34
2018-12-11T13:00:10.102Z,35.69
2018-12-11T13:02:39.817Z,35.53
2018-12-11T13:08:54.846Z,34.57
2018-12-11T13:11:24.555Z,34.42
2018-12-11T13:13:54.264Z,34.89
2018-12-11T13:16:23.971Z,34.65
2018-12-11T13:18:53.629Z,33.86
2018-12-11T13:21:23.305Z,34.56
2018-12-11T13:23:52.969Z,34.94
2018-12-11T13:26:22.713Z,35.21
2018-12-11T13:28:52.386Z,34.32
2018-12-11T13:31:22.092Z,35.34
2018-12-11T13:33:51.768Z,35.33
2018-12-11T13:36:21.448Z,34.85
2018-12-11T13:38:51.109Z,34.79
2018-12-11T13:41:20.792Z,35.54
2018-12-11T13:43:50.750Z,35.99
2018-12-11T13:46:20.396Z,35.85
2018-12-11T13:48:50.320Z,36.55
2018-12-11T13:51:20.030Z,36.41
2018-12-11T13:53:49.715Z,36.55
2018-12-11T13:56:19.411Z,37.46
2018-12-11T13:58:49.078Z,37.00
2018-12-11T14:01:18.780Z,37.42
2018-12-11T14:03:48.508Z,37.13
2018-12-11T14:06:18.209Z,38.05
2018-12-11T14:08:47.852Z,38.29
2018-12-11T14:11:17.571Z,37.63
2018-12-11T14:13:47.223Z,38.76
2018-12-11T14:16:16.933Z,38.25
2018-12-11T14:18:46.684Z,38.87
2018-12-11T14:21:16.389Z,38.67
2018-12-11T14:23:46.147Z,38.59
2018-12-11T14:26:15.849Z,38.95
2018-12-11T14:28:45.654Z,39.09
2018-12-11T14:31:15.393Z,38.76
2018-12-11T14:33:45.192Z,39.14
2018-12-11T14:36:14.957Z,38.94
2018-12-11T14:38:44.652Z,39.32
2018-12-11T14:41:14.368Z,39.78
2018-12-11T14:43:44.076Z,39.67
2018-12-11T14:46:13.797Z,40.02
2018-12-11T14:48:43.526Z,40.47
2018-12-11T14:51:13.233Z,40.84
2018-12-11T14:53:43.049Z,40.69
2018-12-11T14:56:13.007Z,40.52
2018-12-11T14:58:42.669Z,40.39
2018-12-11T15:01:12.389Z,40.74
2018-12-11T15:03:42.157Z,40.73
2018-12-11T15:06:11.848Z,40.88
2018-12-11T15:08:41.550Z,40.78
2018-12-11T15:11:11.289Z,41.26
2018-12-11T15:13:40.957Z,41.17
2018-12-11T15:16:10.985Z,41.01
2018-12-11T15:18:40.699Z,40.53
2018-12-11T15:21:10.364Z,39.96
2018-12-11T15:23:40.050Z,40.30
2018-12-11T15:26:09.717Z,39.89
2018-12-11T15:28:39.445Z,40.57
2018-12-11T15:31:13.375Z,40.52
2018-12-11T15:33:43.252Z,40.28
2018-12-11T15:36:13.010Z,40.62
2018-12-11T15:38:42.815Z,40.41
2018-12-11T15:41:12.505Z,40.45
2018-12-11T15:43:42.173Z,40.49
2018-12-11T15:46:11.959Z,40.25
2018-12-11T15:48:41.797Z,40.38
2018-12-11T15:51:11.634Z,40.68
2018-12-11T15:53:41.361Z,40.64
2018-12-11T15:56:11.153Z,40.83
2018-12-11T15:58:40.870Z,41.31
2018-12-11T16:01:10.595Z,41.23
2018-12-11T16:03:40.336Z,41.49
2018-12-11T16:06:10.053Z,40.95
2018-12-11T16:08:39.690Z,41.38
2018-12-11T16:11:09.416Z,41.14
2018-12-11T16:13:39.092Z,41.30
2018-12-11T16:16:08.768Z,40.98
2018-12-11T16:18:38.486Z,41.00
2018-12-11T16:21:08.214Z,41.15
2018-12-11T16:23:37.898Z,40.57
2018-12-11T16:26:07.640Z,41.74
2018-12-11T16:28:37.315Z,40.79
2018-12-11T16:31:06.985Z,40.56
2018-12-11T16:33:36.636Z,40.81
2018-12-11T16:36:06.316Z,40.86
2018-12-11T16:38:35.950Z,41.00
2018-12-11T16:41:05.713Z,41.01
2018-12-11T16:43:35.358Z,40.79
2018-12-11T16:46:05.103Z,41.14
2018-12-11T16:48:34.760Z,41.02
2018-12-11T16:51:04.459Z,41.28
2018-12-11T16:53:34.129Z,41.21
2018-12-11T16:56:03.824Z,41.08
2018-12-11T16:58:33.479Z,41.20
2018-12-11T17:01:03.186Z,41.24
2018-12-11T17:03:32.817Z,41.67
2018-12-11T17:06:02.519Z,41.29
2018-12-11T17:08:32.193Z,41.48
2018-12-11T17:11:01.869Z,42.00
2018-12-11T17:13:31.552Z,42.18
2018-12-11T17:16:01.229Z,41.83
2018-12-11T17:18:30.909Z,41.98
2018-12-11T17:21:00.800Z,42.04
2018-12-11T17:23:30.511Z,42.22
2018-12-11T17:26:00.205Z,42.22
2018-12-11T17:28:29.866Z,42.64
2018-12-11T17:30:59.580Z,42.55
2018-12-11T17:33:29.272Z,42.41
2018-12-11T17:35:58.941Z,42.65
2018-12-11T17:38:28.653Z,42.30
2018-12-11T17:40:58.352Z,42.60
2018-12-11T17:43:27.997Z,42.52
2018-12-11T17:45:57.720Z,42.30
2018-12-11T17:48:27.860Z,43.02
2018-12-11T17:50:57.796Z,42.94
2018-12-11T17:53:27.784Z,42.72
2018-12-11T17:55:57.442Z,42.59
2018-12-11T17:58:27.119Z,42.55
2018-12-11T18:00:56.910Z,42.36
2018-12-11T18:03:26.552Z,42.35
2018-12-11T18:05:56.213Z,42.56
2018-12-11T18:08:25.896Z,42.46
2018-12-11T18:10:55.586Z,42.32
2018-12-11T18:13:25.259Z,42.79
2018-12-11T18:15:54.898Z,42.60
2018-12-11T18:18:24.597Z,43.17
2018-12-11T18:20:54.301Z,43.15
2018-12-11T18:23:23.945Z,43.33
2018-12-11T18:25:53.661Z,43.74
2018-12-11T18:28:23.329Z,43.67
2018-12-11T18:30:53.101Z,43.69
2018-12-11T18:33:22.778Z,43.28
2018-12-11T18:35:52.510Z,43.13
2018-12-11T18:38:22.164Z,43.41
2018-12-11T18:40:51.881Z,43.48
2018-12-11T18:43:21.568Z,43.11
2018-12-11T18:45:52.055Z,43.26
2018-12-11T18:48:21.753Z,43.28
2018-12-11T18:50:51.432Z,43.00
2018-12-11T18:53:21.100Z,43.10
2018-12-11T18:55:50.742Z,43.28
2018-12-11T18:58:20.418Z,42.96
2018-12-11T19:00:50.080Z,43.47
2018-12-11T19:03:19.903Z,42.96
2018-12-11T19:05:49.646Z,42.94
2018-12-11T19:08:19.295Z,43.10
2018-12-11T19:10:48.973Z,42.93
2018-12-11T19:13:18.671Z,42.48
2018-12-11T19:15:48.721Z,42.54
2018-12-11T19:18:18.433Z,42.49
2018-12-11T19:20:48.313Z,42.29
2018-12-11T19:23:28.150Z,42.12
2018-12-11T19:25:57.866Z,42.41
2018-12-11T19:28:27.537Z,42.37
2018-12-11T19:30:57.222Z,42.43
2018-12-11T19:33:26.926Z,42.61
2018-12-11T19:35:56.649Z,42.40
2018-12-11T19:38:26.301Z,42.74
2018-12-11T19:40:55.976Z,42.45
2018-12-11T19:43:25.668Z,42.54
2018-12-11T19:45:55.333Z,42.42
2018-12-11T19:48:25.012Z,42.96
2018-12-11T19:50:54.770Z,42.79
2018-12-11T19:53:24.421Z,42.84
2018-12-11T19:55:54.149Z,42.97
2018-12-11T19:58:23.807Z,42.98
2018-12-11T20:00:53.504Z,42.81
2018-12-11T20:03:23.146Z,43.23
2018-12-11T20:05:52.848Z,43.41
2018-12-11T20:08:22.518Z,43.89
2018-12-11T20:10:54.001Z,43.45
2018-12-11T20:13:23.808Z,43.23
2018-12-11T20:15:53.477Z,43.29
2018-12-11T20:18:23.164Z,43.36
2018-12-11T20:20:52.863Z,43.48
2018-12-11T20:23:22.513Z,43.33
2018-12-11T20:25:52.192Z,43.26
2018-12-11T20:28:21.845Z,43.39
2018-12-11T20:30:51.550Z,43.47
2018-12-11T20:33:21.294Z,43.58
2018-12-11T20:35:50.980Z,43.77
2018-12-11T20:38:20.661Z,44.29
2018-12-11T20:40:50.329Z,44.04
2018-12-11T20:43:20.137Z,44.42
2018-12-11T20:45:50.433Z,44.13
2018-12-11T20:48:20.614Z,44.16
2018-12-11T20:50:50.332Z,44.14
2018-12-11T20:53:20.000Z,44.26
2018-12-11T20:55:49.635Z,44.09
2018-12-11T20:58:19.304Z,44.35
2018-12-11T21:00:49.026Z,44.32
2018-12-11T21:03:18.677Z,44.83
2018-12-11T21:05:48.401Z,44.79
2018-12-11T21:08:18.343Z,44.38
2018-12-11T21:10:48.029Z,44.40
2018-12-11T21:13:17.697Z,44.54
2018-12-11T21:15:47.336Z,44.66
2018-12-11T21:18:17.068Z,44.50
2018-12-11T21:20:46.785Z,44.93
2018-12-11T21:23:18.625Z,44.67
2018-12-11T21:25:48.325Z,44.88
2018-12-11T21:28:17.981Z,45.01
2018-12-11T21:30:47.620Z,44.90
2018-12-11T21:33:17.469Z,44.73
2018-12-11T21:35:47.144Z,45.15
2018-12-11T21:38:16.808Z,45.30
2018-12-11T21:40:46.561Z,45.30
2018-12-11T21:43:16.253Z,45.09
2018-12-11T21:45:45.913Z,45.01
2018-12-11T21:48:15.595Z,44.95
2018-12-11T21:50:45.246Z,45.14
2018-12-11T21:53:15.027Z,45.48
2018-12-11T21:55:44.690Z,45.62
2018-12-11T21:58:14.375Z,45.72
2018-12-11T22:00:44.094Z,46.05
2018-12-11T22:03:13.905Z,46.08
2018-12-11T22:05:43.662Z,46.54
2018-12-11T22:08:13.365Z,46.70
2018-12-11T22:10:43.387Z,46.62
2018-12-11T22:13:13.096Z,46.73
2018-12-11T22:15:42.749Z,47.25
2018-12-11T22:18:12.444Z,47.30
2018-12-11T22:20:42.124Z,46.54
2018-12-11T22:23:11.786Z,47.28
2018-12-11T22:25:41.484Z,47.32
2018-12-11T22:28:11.137Z,47.35
2018-12-11T22:30:40.840Z,47.22
2018-12-11T22:33:10.452Z,47.48
2018-12-11T22:35:40.114Z,47.21
2018-12-11T22:38:09.749Z,47.89
2018-12-11T22:40:39.441Z,47.16
2018-12-11T22:43:09.074Z,47.50
2018-12-11T22:45:38.759Z,47.71
2018-12-11T22:48:08.384Z,47.69
2018-12-11T22:50:38.081Z,47.73
2018-12-11T22:53:07.736Z,47.73
2018-12-11T22:55:37.414Z,47.33
2018-12-11T22:58:07.062Z,47.97
2018-12-11T23:00:37.476Z,48.22
2018-12-11T23:03:07.191Z,47.68
2018-12-11T23:05:36.851Z,47.68
2018-12-11T23:08:06.516Z,48.00
2018-12-11T23:10:36.338Z,47.77
2018-12-11T23:13:06.025Z,47.92
2018-12-11T23:15:35.757Z,48.02
2018-12-11T23:18:05.421Z,47.79
2018-12-11T23:20:35.080Z,47.73
2018-12-11T23:23:04.775Z,48.26
2018-12-11T23:25:34.421Z,48.11
2018-12-11T23:28:04.143Z,47.84
2018-12-11T23:30:33.804Z,47.96
2018-12-11T23:33:03.452Z,47.95
2018-12-11T23:35:33.284Z,47.76
2018-12-11T23:38:02.932Z,47.58
2018-12-11T23:40:32.595Z,47.79
2018-12-11T23:43:02.241Z,48.13
2018-12-11T23:45:31.902Z,47.15
2018-12-11T23:48:01.542Z,46.92
2018-12-11T23:50:31.225Z,46.61
2018-12-11T23:53:01.064Z,46.99
2018-12-11T23:55:30.716Z,46.77
2018-12-11T23:58:00.401Z,46.20
